createdAt,value
2023-04-27T00:00:11.549Z,100386.77
2023-04-27T00:03:00.286Z,100387.42
2023-04-27T00:05:29.957Z,100383.92
2023-04-27T00:07:58.792Z,100381.96
2023-04-27T00:10:27.677Z,100376.73
2023-04-27T00:12:56.661Z,100378.20
2023-04-27T00:15:25.360Z,100375.84
2023-04-27T00:17:55.075Z,100378.30
2023-04-27T00:20:24.259Z,100376.36
2023-04-27T00:22:53.059Z,100374.68
2023-04-27T00:25:22.470Z,100371.48
2023-04-27T00:27:51.459Z,100372.35
2023-04-27T00:30:20.432Z,100370.81
2023-04-27T00:32:49.088Z,100374.92
2023-04-27T00:35:18.442Z,100378.23
2023-04-27T00:37:47.105Z,100381.51
2023-04-27T00:40:15.784Z,100381.45
2023-04-27T00:42:44.621Z,100385.50
2023-04-27T00:45:14.996Z,100384.20
2023-04-27T00:47:45.004Z,100384.39
2023-04-27T00:50:13.721Z,100385.05
2023-04-27T00:52:42.803Z,100385.91
2023-04-27T00:55:12.312Z,100388.37
2023-04-27T00:57:41.808Z,100384.80
2023-04-27T01:00:13.934Z,100385.73
2023-04-27T01:02:43.271Z,100383.21
2023-04-27T01:05:12.874Z,100382.35
2023-04-27T01:07:41.881Z,100383.48
2023-04-27T01:10:11.163Z,100382.88
2023-04-27T01:12:39.887Z,100381.92
2023-04-27T01:15:11.271Z,100382.40
2023-04-27T01:17:42.196Z,100382.77
2023-04-27T01:20:11.620Z,100382.36
2023-04-27T01:22:40.655Z,100385.73
2023-04-27T01:25:10.508Z,100385.06
2023-04-27T01:27:39.262Z,100383.64
2023-04-27T01:30:08.664Z,100385.27
2023-04-27T01:32:40.696Z,100382.88
2023-04-27T01:35:10.428Z,100388.48
2023-04-27T01:37:38.902Z,100387.34
2023-04-27T01:40:09.122Z,100392.20
2023-04-27T01:42:37.817Z,100392.60
2023-04-27T01:45:07.877Z,100391.58
2023-04-27T01:47:36.822Z,100390.19
2023-04-27T01:50:06.747Z,100391.02
2023-04-27T01:52:35.946Z,100392.45
2023-04-27T01:55:05.221Z,100392.89
2023-04-27T01:57:34.120Z,100394.97
2023-04-27T02:00:03.729Z,100395.39
2023-04-27T02:02:51.599Z,100399.91
2023-04-27T02:05:20.683Z,100401.08
2023-04-27T02:07:50.058Z,100400.20
2023-04-27T02:10:18.645Z,100400.28
2023-04-27T02:12:47.336Z,100399.80
2023-04-27T02:15:16.481Z,100400.66
2023-04-27T02:17:45.969Z,100395.27
2023-04-27T02:20:15.262Z,100400.61
2023-04-27T02:22:44.894Z,100399.92
2023-04-27T02:25:14.145Z,100396.37
2023-04-27T02:27:44.492Z,100401.55
2023-04-27T02:30:14.200Z,100402.96
2023-04-27T02:32:44.423Z,100406.65
2023-04-27T02:35:13.392Z,100409.04
2023-04-27T02:37:42.307Z,100408.23
2023-04-27T02:40:12.024Z,100410.80
2023-04-27T02:42:41.194Z,100412.45
2023-04-27T02:45:12.832Z,100411.33
2023-04-27T02:47:42.715Z,100413.48
2023-04-27T02:50:12.054Z,100414.05
2023-04-27T02:52:42.101Z,100408.41
2023-04-27T02:55:10.814Z,100408.28
2023-04-27T02:57:39.557Z,100410.76
2023-04-27T03:00:10.560Z,100412.67
2023-04-27T03:02:39.426Z,100410.08
2023-04-27T03:05:09.394Z,100407.00
2023-04-27T03:07:38.715Z,100411.47
2023-04-27T03:10:07.912Z,100410.10
2023-04-27T03:12:37.698Z,100415.41
2023-04-27T03:15:06.993Z,100416.80
2023-04-27T03:17:38.164Z,100414.20
2023-04-27T03:20:10.461Z,100413.59
2023-04-27T03:22:39.270Z,100416.85
2023-04-27T03:25:08.290Z,100416.49
2023-04-27T03:27:37.090Z,100417.48
2023-04-27T03:30:07.820Z,100419.14
2023-04-27T03:32:36.944Z,100420.79
2023-04-27T03:35:07.073Z,100420.50
2023-04-27T03:37:36.035Z,100422.45
2023-04-27T03:40:08.007Z,100423.27
2023-04-27T03:42:36.896Z,100428.29
2023-04-27T03:45:07.099Z,100424.96
2023-04-27T03:47:36.348Z,100430.72
2023-04-27T03:50:05.723Z,100431.41
2023-04-27T03:52:34.992Z,100436.43
2023-04-27T03:55:07.871Z,100434.65
2023-04-27T03:57:36.669Z,100440.16
2023-04-27T04:00:12.004Z,100445.52
2023-04-27T04:02:43.598Z,100446.92
2023-04-27T04:05:15.305Z,100449.07
2023-04-27T04:07:44.749Z,100450.46
2023-04-27T04:10:13.934Z,100450.97
2023-04-27T04:12:43.010Z,100452.37
2023-04-27T04:15:12.929Z,100451.19
2023-04-27T04:17:42.075Z,100458.29
2023-04-27T04:20:11.430Z,100462.50
2023-04-27T04:22:40.624Z,100464.71
2023-04-27T04:25:09.928Z,100467.50
2023-04-27T04:27:39.137Z,100465.48
2023-04-27T04:30:08.971Z,100468.86
2023-04-27T04:32:40.898Z,100475.23
2023-04-27T04:35:09.779Z,100478.61
2023-04-27T04:37:38.586Z,100481.17
2023-04-27T04:40:11.917Z,100482.45
2023-04-27T04:42:41.059Z,100483.27
2023-04-27T04:45:11.110Z,100481.19
2023-04-27T04:47:40.149Z,100482.80
2023-04-27T04:50:10.669Z,100489.05
2023-04-27T04:52:40.113Z,100489.80
2023-04-27T04:55:09.841Z,100492.14
2023-04-27T04:57:39.771Z,100496.21
2023-04-27T05:00:18.661Z,100499.27
2023-04-27T05:02:47.700Z,100497.61
2023-04-27T05:05:17.773Z,100498.64
2023-04-27T05:07:46.761Z,100502.76
2023-04-27T05:10:17.028Z,100502.41
2023-04-27T05:12:46.180Z,100507.09
2023-04-27T05:15:15.069Z,100504.84
2023-04-27T05:17:44.002Z,100505.67
2023-04-27T05:20:12.867Z,100509.58
2023-04-27T05:22:42.139Z,100509.48
2023-04-27T05:25:10.829Z,100509.75
2023-04-27T05:27:39.764Z,100512.96
2023-04-27T05:30:11.486Z,100514.00
2023-04-27T05:32:40.735Z,100508.37
2023-04-27T05:35:10.824Z,100511.73
2023-04-27T05:37:39.733Z,100511.42
2023-04-27T05:40:10.211Z,100511.51
2023-04-27T05:42:39.838Z,100517.89
2023-04-27T05:45:10.082Z,100517.27
2023-04-27T05:47:39.616Z,100517.51
2023-04-27T05:50:09.152Z,100520.77
2023-04-27T05:52:39.426Z,100526.20
2023-04-27T05:55:08.760Z,100527.48
2023-04-27T05:57:37.662Z,100527.54
2023-04-27T06:00:11.133Z,100530.16
2023-04-27T06:02:42.917Z,100529.60
2023-04-27T06:05:12.311Z,100532.64
2023-04-27T06:07:41.971Z,100534.52
2023-04-27T06:10:12.097Z,100531.93
2023-04-27T06:12:41.179Z,100534.67
2023-04-27T06:15:11.130Z,100534.29
2023-04-27T06:17:40.405Z,100533.93
2023-04-27T06:20:10.091Z,100535.02
2023-04-27T06:22:39.345Z,100538.42
2023-04-27T06:25:09.608Z,100538.34
2023-04-27T06:27:38.902Z,100539.54
2023-04-27T06:30:08.624Z,100541.90
2023-04-27T06:32:37.749Z,100542.15
2023-04-27T06:35:07.179Z,100540.97
2023-04-27T06:37:36.099Z,100536.58
2023-04-27T06:40:05.951Z,100538.48
2023-04-27T06:42:35.638Z,100534.56
2023-04-27T06:45:06.429Z,100538.73
2023-04-27T06:47:35.654Z,100541.96
2023-04-27T06:50:05.067Z,100539.10
2023-04-27T06:52:34.463Z,100534.77
2023-04-27T06:55:03.554Z,100531.86
2023-04-27T06:57:32.662Z,100530.52
2023-04-27T07:00:01.654Z,100527.46
2023-04-27T07:02:31.408Z,100526.20
2023-04-27T07:05:00.740Z,100527.09
2023-04-27T07:07:29.754Z,100530.41
2023-04-27T07:09:59.453Z,100528.73
2023-04-27T07:12:28.438Z,100527.02
2023-04-27T07:14:57.246Z,100526.80
2023-04-27T07:17:26.250Z,100525.52
2023-04-27T07:19:55.333Z,100526.17
2023-04-27T07:22:24.413Z,100532.56
2023-04-27T07:24:53.524Z,100529.42
2023-04-27T07:27:22.721Z,100527.27
2023-04-27T07:29:51.809Z,100530.63
2023-04-27T07:32:22.073Z,100529.16
2023-04-27T07:34:54.329Z,100527.14
2023-04-27T07:37:24.645Z,100531.09
2023-04-27T07:39:53.942Z,100530.98
2023-04-27T07:42:23.227Z,100530.23
2023-04-27T07:44:53.070Z,100530.23
2023-04-27T07:47:22.561Z,100527.91
2023-04-27T07:49:51.419Z,100529.50
2023-04-27T07:52:20.532Z,100532.94
2023-04-27T07:54:49.512Z,100532.51
2023-04-27T07:57:18.911Z,100528.88
2023-04-27T07:59:48.129Z,100527.27
2023-04-27T08:02:20.555Z,100528.51
2023-04-27T08:04:51.045Z,100526.86
2023-04-27T08:07:20.589Z,100530.70
2023-04-27T08:09:52.947Z,100532.10
2023-04-27T08:12:22.193Z,100531.13
2023-04-27T08:14:51.083Z,100530.86
2023-04-27T08:17:22.746Z,100535.25
2023-04-27T08:19:52.058Z,100539.48
2023-04-27T08:22:21.026Z,100542.27
2023-04-27T08:24:50.330Z,100545.09
2023-04-27T08:27:19.844Z,100538.60
2023-04-27T08:29:49.847Z,100545.82
2023-04-27T08:32:19.272Z,100547.52
2023-04-27T08:34:48.176Z,100544.06
2023-04-27T08:37:17.062Z,100544.96
2023-04-27T08:39:48.082Z,100542.42
2023-04-27T08:42:17.429Z,100546.50
2023-04-27T08:44:46.776Z,100542.49
2023-04-27T08:47:16.424Z,100542.80
2023-04-27T08:49:45.069Z,100543.36
2023-04-27T08:52:15.524Z,100544.00
2023-04-27T08:54:44.737Z,100548.44
2023-04-27T08:57:14.998Z,100546.71
2023-04-27T08:59:47.085Z,100545.51
2023-04-27T09:02:20.749Z,100541.72
2023-04-27T09:04:51.492Z,100549.02
2023-04-27T09:07:23.062Z,100547.03
2023-04-27T09:10:04.409Z,100540.77
2023-04-27T09:12:33.446Z,100541.73
2023-04-27T09:15:09.029Z,100544.59
2023-04-27T09:17:39.351Z,100545.69
2023-04-27T09:20:13.898Z,100540.75
2023-04-27T09:22:46.516Z,100542.77
2023-04-27T09:25:31.918Z,100542.38
2023-04-27T09:28:01.880Z,100539.88
2023-04-27T09:30:31.223Z,100538.13
2023-04-27T09:33:04.572Z,100536.38
2023-04-27T09:35:34.227Z,100537.23
2023-04-27T09:38:03.417Z,100535.41
2023-04-27T09:40:32.311Z,100539.83
2023-04-27T09:43:04.677Z,100535.65
2023-04-27T09:45:37.717Z,100543.52
2023-04-27T09:48:07.639Z,100538.38
2023-04-27T09:50:41.583Z,100535.60
2023-04-27T09:53:12.588Z,100535.04
2023-04-27T09:56:14.367Z,100539.23
2023-04-27T09:58:48.811Z,100537.30
2023-04-27T10:01:26.896Z,100540.16
2023-04-27T10:03:56.597Z,100541.70
2023-04-27T10:07:03.400Z,100542.13
2023-04-27T10:09:42.306Z,100546.19
2023-04-27T10:12:24.437Z,100544.47
2023-04-27T10:14:58.773Z,100547.83
2023-04-27T10:17:54.808Z,100559.81
2023-04-27T10:20:36.334Z,100561.97
2023-04-27T10:23:05.651Z,100556.16
2023-04-27T10:25:40.927Z,100562.24
2023-04-27T10:28:17.149Z,100556.19
2023-04-27T10:30:49.131Z,100559.95
2023-04-27T10:33:20.685Z,100557.48
2023-04-27T10:35:58.539Z,100556.02
2023-04-27T10:38:32.300Z,100550.45
2023-04-27T10:41:05.563Z,100546.94
2023-04-27T10:43:36.737Z,100549.39
2023-04-27T10:46:13.626Z,100548.30
2023-04-27T10:48:46.277Z,100553.02
2023-04-27T10:51:18.238Z,100544.48
2023-04-27T10:53:53.248Z,100538.13
2023-04-27T10:56:22.393Z,100542.84
2023-04-27T10:58:51.357Z,100542.25
2023-04-27T11:01:27.172Z,100541.96
2023-04-27T11:04:00.217Z,100539.24
2023-04-27T11:06:30.650Z,100539.68
2023-04-27T11:09:00.886Z,100541.95
2023-04-27T11:11:29.447Z,100544.38
2023-04-27T11:13:58.757Z,100541.59
2023-04-27T11:16:27.789Z,100538.67
2023-04-27T11:18:57.432Z,100531.44
2023-04-27T11:21:28.905Z,100535.70
2023-04-27T11:23:58.382Z,100538.14
2023-04-27T11:26:27.181Z,100540.73
2023-04-27T11:29:03.887Z,100545.47
2023-04-27T11:31:51.834Z,100544.33
2023-04-27T11:34:22.820Z,100546.66
2023-04-27T11:37:18.031Z,100546.05
2023-04-27T11:39:47.547Z,100543.41
2023-04-27T11:42:24.908Z,100545.45
2023-04-27T11:44:55.512Z,100549.77
2023-04-27T11:47:26.511Z,100548.08
2023-04-27T11:49:58.133Z,100547.70
2023-04-27T11:52:33.637Z,100557.60
2023-04-27T11:55:04.779Z,100560.38
2023-04-27T11:57:35.180Z,100565.97
2023-04-27T12:00:12.551Z,100564.16
2023-04-27T12:02:45.513Z,100559.05
2023-04-27T12:05:14.904Z,100562.52
2023-04-27T12:07:43.897Z,100563.52
2023-04-27T12:10:13.079Z,100560.05
2023-04-27T12:12:42.125Z,100553.96
2023-04-27T12:15:11.420Z,100554.70
2023-04-27T12:17:40.476Z,100552.98
2023-04-27T12:20:10.279Z,100551.63
2023-04-27T12:22:39.338Z,100559.30
2023-04-27T12:25:08.447Z,100557.76
2023-04-27T12:27:37.721Z,100553.73
2023-04-27T12:30:07.226Z,100552.73
2023-04-27T12:32:36.360Z,100551.61
2023-04-27T12:35:06.579Z,100551.16
2023-04-27T12:37:35.660Z,100550.79
2023-04-27T12:40:07.817Z,100547.08
2023-04-27T12:42:37.521Z,100544.20
2023-04-27T12:45:07.840Z,100549.86
2023-04-27T12:47:58.290Z,100551.04
2023-04-27T12:50:27.234Z,100551.55
2023-04-27T12:52:55.710Z,100556.88
2023-04-27T12:58:00.166Z,100557.50
2023-04-27T13:00:30.577Z,100557.26
2023-04-27T13:03:00.972Z,100553.09
2023-04-27T13:05:34.595Z,100553.95
2023-04-27T13:08:03.300Z,100551.55
2023-04-27T13:10:32.471Z,100547.64
2023-04-27T13:13:01.915Z,100545.98
2023-04-27T13:15:32.133Z,100546.23
2023-04-27T13:18:02.349Z,100544.05
2023-04-27T13:20:31.117Z,100542.27
2023-04-27T13:22:59.901Z,100542.84
2023-04-27T13:25:31.640Z,100544.13
2023-04-27T13:28:01.038Z,100547.39
2023-04-27T13:30:30.867Z,100544.71
2023-04-27T13:33:14.311Z,100544.91
2023-04-27T13:35:49.740Z,100548.52
2023-04-27T13:38:20.649Z,100549.96
2023-04-27T13:40:49.573Z,100552.31
2023-04-27T13:43:19.890Z,100547.80
2023-04-27T13:45:50.764Z,100549.39
2023-04-27T13:48:19.916Z,100546.20
2023-04-27T13:50:49.644Z,100548.23
2023-04-27T13:53:18.915Z,100550.58
2023-04-27T13:55:50.199Z,100547.02
2023-04-27T13:58:19.184Z,100549.52
2023-04-27T14:00:49.310Z,100552.91
2023-04-27T14:03:22.171Z,100555.89
2023-04-27T14:05:54.057Z,100555.45
2023-04-27T14:08:24.469Z,100558.54
2023-04-27T14:10:54.081Z,100557.20
2023-04-27T14:13:29.834Z,100549.48
2023-04-27T14:16:12.275Z,100549.20
2023-04-27T14:18:46.611Z,100548.36
2023-04-27T14:21:15.549Z,100545.44
2023-04-27T14:23:44.859Z,100548.71
2023-04-27T14:26:14.044Z,100553.70
2023-04-27T14:28:43.060Z,100559.21
2023-04-27T14:31:11.826Z,100555.79
2023-04-27T14:33:42.791Z,100564.81
2023-04-27T14:36:12.999Z,100561.59
2023-04-27T14:38:47.629Z,100562.68
2023-04-27T14:41:22.566Z,100554.58
2023-04-27T14:44:00.052Z,100561.17
2023-04-27T14:46:34.719Z,100561.87
2023-04-27T14:49:10.007Z,100557.69
2023-04-27T14:51:46.547Z,100554.89
2023-04-27T14:54:23.038Z,100553.06
2023-04-27T14:56:58.591Z,100552.22
2023-04-27T14:59:31.135Z,100557.80
2023-04-27T15:02:01.711Z,100554.22
2023-04-27T15:04:31.616Z,100552.70
2023-04-27T15:07:00.877Z,100551.41
2023-04-27T15:09:32.386Z,100543.52
2023-04-27T15:12:02.706Z,100551.91
2023-04-27T15:14:32.459Z,100546.92
2023-04-27T15:17:01.712Z,100548.20
2023-04-27T15:19:30.803Z,100544.35
2023-04-27T15:22:02.776Z,100541.02
2023-04-27T15:24:32.358Z,100547.45
2023-04-27T15:27:01.039Z,100554.10
2023-04-27T15:29:29.867Z,100554.13
2023-04-27T15:31:58.522Z,100549.52
2023-04-27T15:34:28.122Z,100553.06
2023-04-27T15:36:57.041Z,100556.61
2023-04-27T15:39:25.712Z,100556.90
2023-04-27T15:41:57.063Z,100550.77
2023-04-27T15:44:30.878Z,100552.84
2023-04-27T15:47:03.115Z,100550.63
2023-04-27T15:49:34.439Z,100551.63
2023-04-27T15:52:09.724Z,100554.63
2023-04-27T15:54:38.434Z,100554.56
2023-04-27T15:57:10.319Z,100551.09
2023-04-27T15:59:41.375Z,100551.47
2023-04-27T16:02:14.414Z,100554.55
2023-04-27T16:04:43.395Z,100551.48
2023-04-27T16:07:20.202Z,100553.53
2023-04-27T16:09:54.897Z,100548.92
2023-04-27T16:12:39.462Z,100548.67
2023-04-27T16:15:10.946Z,100552.39
2023-04-27T16:17:43.325Z,100548.11
2023-04-27T16:20:12.376Z,100546.84
2023-04-27T16:22:41.171Z,100545.47
2023-04-27T16:25:11.407Z,100545.55
2023-04-27T16:27:40.050Z,100546.77
2023-04-27T16:30:10.188Z,100548.97
2023-04-27T16:32:39.069Z,100546.70
2023-04-27T16:35:08.853Z,100547.04
2023-04-27T16:37:37.361Z,100547.73
2023-04-27T16:40:08.435Z,100548.15
2023-04-27T16:42:37.101Z,100543.89
2023-04-27T16:45:09.055Z,100547.59
2023-04-27T16:47:38.920Z,100549.78
2023-04-27T16:50:07.974Z,100547.96
2023-04-27T16:52:36.539Z,100552.57
2023-04-27T16:55:06.409Z,100547.67
2023-04-27T16:57:35.447Z,100555.05
2023-04-27T17:00:06.740Z,100565.91
2023-04-27T17:02:35.579Z,100561.98
2023-04-27T17:05:04.839Z,100563.63
2023-04-27T17:07:33.561Z,100564.25
2023-04-27T17:10:02.152Z,100563.37
2023-04-27T17:12:30.931Z,100562.66
2023-04-27T17:14:59.617Z,100566.91
2023-04-27T17:17:33.650Z,100563.38
2023-04-27T17:20:02.726Z,100567.72
2023-04-27T17:22:33.592Z,100567.72
2023-04-27T17:25:02.458Z,100564.70
2023-04-27T17:27:32.084Z,100563.73
2023-04-27T17:30:02.609Z,100562.71
2023-04-27T17:32:32.342Z,100558.80
2023-04-27T17:35:01.187Z,100557.57
2023-04-27T17:37:30.202Z,100558.27
2023-04-27T17:39:59.621Z,100557.73
2023-04-27T17:42:28.478Z,100558.91
2023-04-27T17:44:57.583Z,100554.67
2023-04-27T17:47:26.872Z,100553.25
2023-04-27T17:49:56.181Z,100555.61
2023-04-27T17:52:24.855Z,100554.45
2023-04-27T17:54:53.458Z,100552.16
2023-04-27T17:57:23.268Z,100551.38
2023-04-27T17:59:53.072Z,100557.70
2023-04-27T18:02:22.544Z,100554.06
2023-04-27T18:04:51.361Z,100554.11
2023-04-27T18:07:21.260Z,100557.86
2023-04-27T18:09:50.887Z,100559.23
2023-04-27T18:12:19.987Z,100560.73
2023-04-27T18:14:48.761Z,100561.93
2023-04-27T18:17:17.464Z,100564.61
2023-04-27T18:19:47.019Z,100565.70
2023-04-27T18:22:16.689Z,100571.23
2023-04-27T18:24:45.496Z,100571.02
2023-04-27T18:27:17.235Z,100577.98
2023-04-27T18:29:48.159Z,100583.51
2023-04-27T18:32:17.289Z,100587.84
2023-04-27T18:34:46.643Z,100588.36
2023-04-27T18:37:17.588Z,100587.01
2023-04-27T18:39:47.573Z,100585.02
2023-04-27T18:42:18.890Z,100593.35
2023-04-27T18:44:49.481Z,100590.79
2023-04-27T18:47:18.980Z,100595.55
2023-04-27T18:49:48.702Z,100598.60
2023-04-27T18:52:19.531Z,100598.17
2023-04-27T18:54:50.390Z,100597.92
2023-04-27T18:57:19.755Z,100600.06
2023-04-27T18:59:49.470Z,100604.41
2023-04-27T19:02:20.129Z,100606.02
2023-04-27T19:05:01.717Z,100603.20
2023-04-27T19:07:39.110Z,100602.86
2023-04-27T19:10:09.470Z,100604.15
2023-04-27T19:12:39.259Z,100609.95
2023-04-27T19:15:09.003Z,100607.02
2023-04-27T19:17:39.751Z,100609.25
2023-04-27T19:20:10.695Z,100605.05
2023-04-27T19:22:41.032Z,100608.05
2023-04-27T19:25:13.196Z,100610.71
2023-04-27T19:27:42.403Z,100618.51
2023-04-27T19:30:12.034Z,100621.84
2023-04-27T19:32:46.022Z,100623.18
2023-04-27T19:35:15.986Z,100628.73
2023-04-27T19:37:45.529Z,100627.42
2023-04-27T19:40:15.959Z,100632.58
2023-04-27T19:42:48.033Z,100633.45
2023-04-27T19:45:18.440Z,100634.39
2023-04-27T19:47:54.358Z,100635.60
2023-04-27T19:50:24.741Z,100637.14
2023-04-27T19:52:54.153Z,100634.67
2023-04-27T19:55:24.148Z,100636.23
2023-04-27T19:57:54.282Z,100639.36
2023-04-27T20:00:23.580Z,100637.65
2023-04-27T20:02:53.920Z,100642.46
2023-04-27T20:05:23.563Z,100640.64
2023-04-27T20:07:53.118Z,100641.00
2023-04-27T20:10:22.510Z,100640.47
2023-04-27T20:12:56.898Z,100643.34
2023-04-27T20:15:27.153Z,100638.75
2023-04-27T20:17:55.978Z,100635.89
2023-04-27T20:20:25.214Z,100629.63
2023-04-27T20:22:54.239Z,100630.50
2023-04-27T20:25:26.645Z,100634.47
2023-04-27T20:27:56.004Z,100636.41
2023-04-27T20:30:24.897Z,100637.15
2023-04-27T20:32:54.024Z,100640.34
2023-04-27T20:35:24.446Z,100639.94
2023-04-27T20:37:54.458Z,100635.80
2023-04-27T20:40:23.120Z,100639.84
2023-04-27T20:42:52.320Z,100636.41
2023-04-27T20:45:21.703Z,100635.16
2023-04-27T20:47:50.540Z,100635.23
2023-04-27T20:50:19.924Z,100634.16
2023-04-27T20:52:49.538Z,100636.55
2023-04-27T20:55:19.149Z,100633.94
2023-04-27T20:57:48.133Z,100637.95
2023-04-27T21:00:19.405Z,100633.06
2023-04-27T21:02:48.728Z,100632.69
2023-04-27T21:05:17.663Z,100630.20
2023-04-27T21:07:46.341Z,100626.64
2023-04-27T21:10:15.537Z,100627.30
2023-04-27T21:12:44.461Z,100627.13
2023-04-27T21:15:13.439Z,100625.30
2023-04-27T21:17:42.432Z,100622.39
2023-04-27T21:20:11.724Z,100621.96
2023-04-27T21:22:40.529Z,100618.73
2023-04-27T21:25:09.606Z,100621.12
2023-04-27T21:27:38.301Z,100620.74
2023-04-27T21:30:08.508Z,100622.20
2023-04-27T21:32:37.359Z,100623.52
2023-04-27T21:35:08.189Z,100628.73
2023-04-27T21:37:37.441Z,100633.20
2023-04-27T21:40:06.827Z,100636.16
2023-04-27T21:42:35.442Z,100636.30
2023-04-27T21:45:04.861Z,100633.88
2023-04-27T21:47:33.526Z,100630.69
2023-04-27T21:50:02.405Z,100630.05
2023-04-27T21:52:31.091Z,100631.20
2023-04-27T21:54:59.662Z,100634.66
2023-04-27T21:57:28.460Z,100631.69
2023-04-27T21:59:57.132Z,100636.92
2023-04-27T22:02:26.223Z,100636.36
2023-04-27T22:05:51.873Z,100636.46
2023-04-27T22:08:22.594Z,100636.42
2023-04-27T22:10:51.479Z,100633.68
2023-04-27T22:13:20.375Z,100636.27
2023-04-27T22:15:50.135Z,100636.64
2023-04-27T22:18:19.388Z,100630.94
2023-04-27T22:20:48.783Z,100631.90
2023-04-27T22:23:17.788Z,100630.77
2023-04-27T22:25:47.091Z,100631.98
2023-04-27T22:28:16.096Z,100631.29
2023-04-27T22:30:45.893Z,100626.16
2023-04-27T22:33:15.492Z,100620.79
2023-04-27T22:35:44.297Z,100622.39
2023-04-27T22:38:13.369Z,100623.66
2023-04-27T22:40:42.267Z,100626.08
2023-04-27T22:43:11.278Z,100627.78
2023-04-27T22:45:40.473Z,100624.22
2023-04-27T22:48:09.503Z,100622.77
2023-04-27T22:50:38.334Z,100622.30
2023-04-27T22:53:07.852Z,100619.17
2023-04-27T22:55:36.959Z,100624.02
2023-04-27T22:58:06.337Z,100622.83
2023-04-27T23:00:35.233Z,100626.17
2023-04-27T23:03:04.272Z,100627.91
2023-04-27T23:05:33.323Z,100626.05
2023-04-27T23:08:03.231Z,100625.42
2023-04-27T23:10:32.343Z,100618.82
2023-04-27T23:13:04.705Z,100621.88
2023-04-27T23:15:34.594Z,100623.72
2023-04-27T23:18:03.574Z,100621.65
2023-04-27T23:20:32.409Z,100616.65
2023-04-27T23:23:01.888Z,100609.06
2023-04-27T23:25:33.519Z,100607.23
2023-04-27T23:28:02.222Z,100600.76
2023-04-27T23:30:31.449Z,100605.95
2023-04-27T23:33:00.490Z,100614.06
2023-04-27T23:35:30.304Z,100616.07
2023-04-27T23:37:59.746Z,100615.79
2023-04-27T23:40:28.537Z,100611.90
2023-04-27T23:42:57.834Z,100608.80
2023-04-27T23:45:26.522Z,100612.83
2023-04-27T23:47:55.510Z,100611.80
2023-04-27T23:50:25.522Z,100611.48
2023-04-27T23:52:54.514Z,100608.25
2023-04-27T23:55:23.533Z,100605.52
2023-04-27T23:57:55.272Z,100608.15
